createdAt,value
2017-06-27T00:01:01.652Z,7.67
2017-06-27T00:03:29.557Z,8.13
2017-06-27T00:05:57.082Z,8.90
2017-06-27T00:08:25.371Z,8.87
2017-06-27T00:10:54.086Z,8.50
2017-06-27T00:13:21.608Z,7.37
2017-06-27T00:15:49.904Z,7.97
2017-06-27T00:18:17.713Z,7.63
2017-06-27T00:20:45.217Z,7.87
2017-06-27T00:23:13.497Z,8.20
2017-06-27T00:25:41.400Z,7.23
2017-06-27T00:28:08.898Z,7.60
2017-06-27T00:30:36.436Z,6.97
2017-06-27T00:33:04.270Z,9.30
2017-06-27T00:35:31.779Z,8.00
2017-06-27T00:37:59.286Z,7.80
2017-06-27T00:40:27.264Z,6.80
2017-06-27T00:42:54.772Z,8.70
2017-06-27T00:45:22.285Z,8.47
2017-06-27T00:47:50.187Z,9.20
2017-06-27T00:50:17.713Z,7.97
2017-06-27T00:52:45.224Z,7.07
2017-06-27T00:55:13.135Z,8.13
2017-06-27T00:57:40.642Z,8.17
2017-06-27T01:00:08.164Z,8.47
2017-06-27T01:02:36.139Z,7.53
2017-06-27T01:05:03.625Z,8.57
2017-06-27T01:07:31.134Z,7.93
2017-06-27T01:09:59.030Z,9.33
2017-06-27T01:12:26.544Z,7.53
2017-06-27T01:14:54.055Z,7.53
2017-06-27T01:17:21.881Z,8.53
2017-06-27T01:19:49.396Z,8.17
2017-06-27T01:22:16.921Z,8.83
2017-06-27T01:24:44.781Z,8.37
2017-06-27T01:27:12.295Z,7.50
2017-06-27T01:29:39.814Z,7.90
2017-06-27T01:32:07.679Z,8.30
2017-06-27T01:34:35.173Z,7.70
2017-06-27T01:37:02.686Z,7.83
2017-06-27T01:39:30.555Z,7.87
2017-06-27T01:41:58.078Z,7.93
2017-06-27T01:44:25.616Z,7.40
2017-06-27T01:46:53.543Z,7.50
2017-06-27T01:49:21.068Z,7.47
2017-06-27T01:51:48.602Z,7.13
2017-06-27T01:54:16.446Z,7.23
2017-06-27T01:56:43.948Z,7.57
2017-06-27T01:59:11.466Z,7.67
2017-06-27T02:01:39.340Z,7.80
2017-06-27T02:04:06.858Z,8.70
2017-06-27T02:06:34.383Z,7.73
2017-06-27T02:09:02.218Z,8.17
2017-06-27T02:11:29.750Z,8.03
2017-06-27T02:13:57.254Z,8.17
2017-06-27T02:16:25.114Z,10.27
2017-06-27T02:18:52.633Z,7.77
2017-06-27T02:21:20.152Z,8.47
2017-06-27T02:23:47.981Z,7.00
2017-06-27T02:26:15.499Z,7.70
2017-06-27T02:28:43.031Z,7.70
2017-06-27T02:31:10.875Z,7.23
2017-06-27T02:33:38.399Z,7.53
2017-06-27T02:36:06.679Z,7.43
2017-06-27T02:38:34.511Z,6.83
2017-06-27T02:41:02.039Z,7.00
2017-06-27T02:43:29.554Z,7.47
2017-06-27T02:45:57.572Z,8.27
2017-06-27T02:48:25.069Z,7.73
2017-06-27T02:50:52.589Z,6.63
2017-06-27T02:53:20.451Z,7.40
2017-06-27T02:55:47.961Z,7.70
2017-06-27T02:58:15.472Z,7.13
2017-06-27T03:00:43.322Z,7.43
2017-06-27T03:03:10.853Z,7.87
2017-06-27T03:05:38.391Z,7.53
2017-06-27T03:08:06.227Z,7.93
2017-06-27T03:10:35.594Z,7.67
2017-06-27T03:13:03.114Z,8.53
2017-06-27T03:15:30.937Z,7.70
2017-06-27T03:17:58.472Z,7.70
2017-06-27T03:20:25.988Z,8.40
2017-06-27T03:22:53.810Z,8.03
2017-06-27T03:25:21.325Z,8.20
2017-06-27T03:27:48.838Z,7.50
2017-06-27T03:30:16.851Z,7.80
2017-06-27T03:32:44.354Z,8.73
2017-06-27T03:35:12.622Z,8.20
2017-06-27T03:37:40.446Z,8.33
2017-06-27T03:40:07.955Z,7.43
2017-06-27T03:42:36.273Z,6.63
2017-06-27T03:45:04.096Z,8.03
2017-06-27T03:47:32.378Z,8.10
2017-06-27T03:49:59.940Z,7.90
2017-06-27T03:52:28.561Z,8.17
2017-06-27T03:54:56.098Z,8.67
2017-06-27T03:57:24.365Z,8.27
2017-06-27T03:59:52.943Z,8.80
2017-06-27T04:02:21.239Z,11.03
2017-06-27T04:04:48.768Z,8.20
2017-06-27T04:07:17.405Z,7.87
2017-06-27T04:09:44.914Z,7.60
2017-06-27T04:12:12.427Z,8.80
2017-06-27T04:14:40.234Z,7.73
2017-06-27T04:17:07.772Z,8.57
2017-06-27T04:19:35.288Z,7.87
2017-06-27T04:22:03.169Z,8.80
2017-06-27T04:24:30.678Z,8.63
2017-06-27T04:26:58.208Z,8.70
2017-06-27T04:29:26.055Z,7.20
2017-06-27T04:31:53.582Z,8.93
2017-06-27T04:34:21.854Z,10.13
2017-06-27T04:36:49.786Z,8.70
2017-06-27T04:39:17.291Z,9.70
2017-06-27T04:41:45.570Z,8.97
2017-06-27T04:44:14.188Z,8.13
2017-06-27T04:46:41.702Z,9.27
2017-06-27T04:49:09.274Z,8.00
2017-06-27T04:51:37.094Z,8.47
2017-06-27T04:54:04.612Z,9.27
2017-06-27T04:56:32.901Z,8.10
2017-06-27T04:59:00.783Z,8.93
2017-06-27T05:01:28.351Z,8.87
2017-06-27T05:03:55.873Z,8.60
2017-06-27T05:06:24.504Z,8.60
2017-06-27T05:08:52.032Z,9.33
2017-06-27T05:11:19.550Z,9.70
2017-06-27T05:13:47.417Z,9.50
2017-06-27T05:16:14.909Z,9.17
2017-06-27T05:18:43.196Z,9.37
2017-06-27T05:21:10.978Z,9.47
2017-06-27T05:23:38.491Z,9.40
2017-06-27T05:26:06.756Z,9.37
2017-06-27T05:28:34.578Z,9.43
2017-06-27T05:31:02.102Z,8.73
2017-06-27T05:33:29.616Z,10.50
2017-06-27T05:35:57.452Z,12.67
2017-06-27T05:38:24.965Z,10.53
2017-06-27T05:40:52.483Z,11.13
2017-06-27T05:43:20.306Z,12.30
2017-06-27T05:45:47.809Z,11.87
2017-06-27T05:48:15.333Z,12.07
2017-06-27T05:50:43.978Z,12.10
2017-06-27T05:53:11.501Z,12.00
2017-06-27T05:55:39.083Z,13.20
2017-06-27T05:58:06.958Z,15.00
2017-06-27T06:00:34.486Z,14.83
2017-06-27T06:03:01.994Z,13.70
2017-06-27T06:05:29.804Z,11.37
2017-06-27T06:07:58.095Z,12.03
2017-06-27T06:10:25.615Z,12.93
2017-06-27T06:12:54.314Z,12.20
2017-06-27T06:15:22.582Z,10.93
2017-06-27T06:17:50.100Z,13.03
2017-06-27T06:20:17.962Z,11.40
2017-06-27T06:22:45.505Z,11.17
2017-06-27T06:25:13.033Z,11.17
2017-06-27T06:27:40.849Z,10.07
2017-06-27T06:30:08.367Z,10.23
2017-06-27T06:32:36.782Z,8.50
2017-06-27T06:35:04.769Z,9.33
2017-06-27T06:37:32.279Z,8.37
2017-06-27T06:40:00.409Z,8.57
2017-06-27T06:42:28.254Z,9.10
2017-06-27T06:44:55.764Z,11.80
2017-06-27T06:47:23.302Z,9.17
2017-06-27T06:49:51.152Z,10.47
2017-06-27T06:52:18.679Z,8.90
2017-06-27T06:54:46.213Z,8.83
2017-06-27T06:57:14.162Z,8.77
2017-06-27T06:59:41.676Z,8.90
2017-06-27T07:02:09.204Z,8.77
2017-06-27T07:04:37.124Z,7.60
2017-06-27T07:07:04.631Z,7.73
2017-06-27T07:09:32.137Z,7.47
2017-06-27T07:11:59.941Z,7.37
2017-06-27T07:14:27.474Z,7.13
2017-06-27T07:16:54.985Z,6.67
2017-06-27T07:19:23.562Z,7.60
2017-06-27T07:21:51.087Z,6.47
2017-06-27T07:24:18.609Z,6.00
2017-06-27T07:26:46.485Z,5.40
2017-06-27T07:29:14.016Z,6.20
2017-06-27T07:31:41.532Z,6.10
2017-06-27T07:34:09.347Z,6.07
2017-06-27T07:36:36.839Z,5.60
2017-06-27T07:39:05.188Z,5.57
2017-06-27T07:41:33.091Z,5.37
2017-06-27T07:44:00.594Z,5.97
2017-06-27T07:46:28.109Z,5.53
2017-06-27T07:48:56.080Z,6.20
2017-06-27T07:51:23.606Z,5.00
2017-06-27T07:53:51.135Z,5.20
2017-06-27T07:56:18.998Z,4.70
2017-06-27T07:58:46.518Z,5.77
2017-06-27T08:01:14.045Z,5.37
2017-06-27T08:03:42.058Z,5.07
2017-06-27T08:06:09.572Z,5.27
2017-06-27T08:08:37.841Z,6.07
2017-06-27T08:11:05.671Z,5.17
2017-06-27T08:13:33.175Z,5.60
2017-06-27T08:16:01.459Z,5.03
2017-06-27T08:18:30.089Z,4.90
2017-06-27T08:20:57.615Z,5.83
2017-06-27T08:23:25.147Z,5.70
2017-06-27T08:25:53.080Z,5.67
2017-06-27T08:28:20.596Z,5.27
2017-06-27T08:30:48.090Z,5.20
2017-06-27T08:33:15.945Z,5.63
2017-06-27T08:35:43.473Z,6.60
2017-06-27T08:38:10.987Z,6.63
2017-06-27T08:40:38.809Z,6.77
2017-06-27T08:43:06.346Z,5.80
2017-06-27T08:45:33.874Z,5.60
2017-06-27T08:48:01.669Z,6.00
2017-06-27T08:50:29.182Z,5.33
2017-06-27T08:52:56.746Z,5.40
2017-06-27T08:55:24.575Z,5.73
2017-06-27T08:57:52.119Z,5.80
2017-06-27T09:00:19.628Z,5.80
2017-06-27T09:02:47.439Z,7.30
2017-06-27T09:05:14.946Z,5.93
2017-06-27T09:07:42.476Z,5.97
2017-06-27T09:10:11.206Z,6.43
2017-06-27T09:12:38.713Z,5.27
2017-06-27T09:15:06.245Z,5.73
2017-06-27T09:17:34.065Z,6.63
2017-06-27T09:20:01.575Z,5.43
2017-06-27T09:22:29.075Z,5.60
2017-06-27T09:24:56.990Z,6.27
2017-06-27T09:27:24.499Z,5.20
2017-06-27T09:29:51.993Z,4.77
2017-06-27T09:32:19.883Z,6.20
2017-06-27T09:34:47.401Z,6.97
2017-06-27T09:37:14.908Z,6.00
2017-06-27T09:39:42.776Z,4.97
2017-06-27T09:42:10.303Z,6.20
2017-06-27T09:44:37.831Z,5.83
2017-06-27T09:47:05.667Z,5.30
2017-06-27T09:49:33.208Z,5.80
2017-06-27T09:52:00.735Z,5.27
2017-06-27T09:54:28.650Z,6.20
2017-06-27T09:56:56.146Z,6.80
2017-06-27T09:59:24.401Z,5.37
2017-06-27T10:01:52.193Z,5.67
2017-06-27T10:04:20.468Z,5.93
2017-06-27T10:06:48.017Z,5.90
2017-06-27T10:09:15.936Z,5.20
2017-06-27T10:11:43.438Z,7.23
2017-06-27T10:14:10.964Z,5.50
2017-06-27T10:16:38.929Z,5.60
2017-06-27T10:19:06.487Z,5.20
2017-06-27T10:21:34.007Z,4.97
2017-06-27T10:24:01.914Z,5.40
2017-06-27T10:26:29.427Z,4.97
2017-06-27T10:28:57.715Z,5.47
2017-06-27T10:31:25.521Z,8.40
2017-06-27T10:33:53.091Z,5.73
2017-06-27T10:36:20.647Z,5.27
2017-06-27T10:38:48.524Z,5.90
2017-06-27T10:41:16.037Z,5.50
2017-06-27T10:43:43.569Z,5.30
2017-06-27T10:46:11.382Z,5.50
2017-06-27T10:48:38.895Z,5.20
2017-06-27T10:51:06.419Z,6.43
2017-06-27T10:53:34.391Z,5.77
2017-06-27T10:56:01.911Z,5.87
2017-06-27T10:58:29.439Z,6.77
2017-06-27T11:00:57.271Z,5.33
2017-06-27T11:03:24.808Z,5.53
2017-06-27T11:05:52.356Z,4.93
2017-06-27T11:08:20.362Z,6.43
2017-06-27T11:10:47.880Z,4.97
2017-06-27T11:13:15.389Z,5.40
2017-06-27T11:15:43.357Z,5.77
2017-06-27T11:18:10.872Z,5.60
2017-06-27T11:20:39.166Z,6.37
2017-06-27T11:23:06.976Z,5.30
2017-06-27T11:25:34.482Z,5.47
2017-06-27T11:28:02.000Z,5.30
2017-06-27T11:30:29.857Z,6.47
2017-06-27T11:32:57.371Z,5.30
2017-06-27T11:35:24.895Z,5.07
2017-06-27T11:37:52.736Z,5.43
2017-06-27T11:40:20.261Z,5.37
2017-06-27T11:42:47.785Z,5.60
2017-06-27T11:45:15.614Z,5.10
2017-06-27T11:47:43.151Z,9.33
2017-06-27T11:50:10.679Z,12.97
2017-06-27T11:52:38.548Z,5.43
2017-06-27T11:55:06.071Z,5.47
2017-06-27T11:57:33.625Z,5.60
2017-06-27T12:00:13.085Z,5.97
2017-06-27T12:02:40.597Z,5.60
2017-06-27T12:05:20.265Z,5.97
2017-06-27T12:07:47.770Z,5.37
2017-06-27T12:10:15.284Z,5.73
2017-06-27T12:12:43.167Z,5.30
2017-06-27T12:15:10.684Z,5.50
2017-06-27T12:17:38.214Z,5.60
2017-06-27T12:20:06.024Z,5.97
2017-06-27T12:22:33.560Z,5.63
2017-06-27T12:25:01.078Z,5.87
2017-06-27T12:27:28.944Z,6.27
2017-06-27T12:29:56.451Z,5.70
2017-06-27T12:32:23.988Z,6.10
2017-06-27T12:34:51.910Z,6.67
2017-06-27T12:37:19.439Z,5.80
2017-06-27T12:39:46.943Z,7.00
2017-06-27T12:42:14.813Z,7.27
2017-06-27T12:44:42.337Z,6.40
2017-06-27T12:47:09.876Z,6.70
2017-06-27T12:49:37.703Z,6.40
2017-06-27T12:52:05.216Z,8.30
2017-06-27T12:54:32.745Z,7.37
2017-06-27T12:57:00.568Z,8.73
2017-06-27T12:59:28.076Z,7.70
2017-06-27T13:01:55.581Z,7.10
2017-06-27T13:04:23.375Z,8.13
2017-06-27T13:06:50.881Z,7.97
2017-06-27T13:09:18.402Z,8.23
2017-06-27T13:11:46.217Z,7.57
2017-06-27T13:14:13.746Z,8.77
2017-06-27T13:16:41.257Z,9.57
2017-06-27T13:19:09.140Z,8.87
2017-06-27T13:21:36.643Z,9.53
2017-06-27T13:24:04.918Z,9.57
2017-06-27T13:26:32.757Z,8.80
2017-06-27T13:29:00.272Z,9.73
2017-06-27T13:31:27.784Z,8.97
2017-06-27T13:33:55.734Z,10.17
2017-06-27T13:36:23.277Z,9.20
2017-06-27T13:38:50.807Z,7.93
2017-06-27T13:41:18.707Z,7.83
2017-06-27T13:43:46.239Z,8.27
2017-06-27T13:46:13.761Z,8.20
2017-06-27T13:48:41.582Z,9.10
2017-06-27T13:51:09.109Z,9.63
2017-06-27T13:53:37.401Z,9.10
2017-06-27T13:56:05.220Z,8.90
2017-06-27T13:58:32.744Z,8.63
2017-06-27T14:01:00.273Z,9.60
2017-06-27T14:03:28.919Z,9.07
2017-06-27T14:05:56.430Z,9.10
2017-06-27T14:08:24.708Z,9.27
2017-06-27T14:10:52.606Z,9.60
2017-06-27T14:13:20.129Z,12.23
2017-06-27T14:15:48.429Z,9.00
2017-06-27T14:18:16.328Z,8.47
2017-06-27T14:20:43.848Z,9.87
2017-06-27T14:23:11.406Z,9.00
2017-06-27T14:25:39.322Z,8.93
2017-06-27T14:28:06.863Z,9.43
2017-06-27T14:30:34.389Z,9.53
2017-06-27T14:33:02.277Z,10.00
2017-06-27T14:35:29.785Z,9.63
2017-06-27T14:37:57.306Z,9.70
2017-06-27T14:40:25.677Z,8.97
2017-06-27T14:42:53.201Z,9.07
2017-06-27T14:45:20.748Z,9.50
2017-06-27T14:47:48.597Z,9.47
2017-06-27T14:50:16.115Z,10.07
2017-06-27T14:52:43.616Z,8.03
2017-06-27T14:55:11.469Z,8.60
2017-06-27T14:57:39.005Z,9.60
2017-06-27T15:00:06.539Z,9.60
2017-06-27T15:02:34.528Z,8.17
2017-06-27T15:05:02.065Z,8.90
2017-06-27T15:07:29.588Z,7.90
2017-06-27T15:09:57.454Z,9.47
2017-06-27T15:12:24.999Z,10.93
2017-06-27T15:14:52.513Z,8.33
2017-06-27T15:17:20.353Z,9.60
2017-06-27T15:19:47.902Z,9.10
2017-06-27T15:22:15.432Z,9.47
2017-06-27T15:24:43.399Z,9.43
2017-06-27T15:27:10.941Z,9.73
2017-06-27T15:29:38.447Z,9.10
2017-06-27T15:32:06.290Z,8.20
2017-06-27T15:34:33.806Z,9.10
2017-06-27T15:37:01.331Z,8.50
2017-06-27T15:39:29.194Z,7.57
2017-06-27T15:41:56.709Z,8.13
2017-06-27T15:44:24.238Z,9.40
2017-06-27T15:46:52.077Z,8.87
2017-06-27T15:49:19.637Z,8.20
2017-06-27T15:51:47.158Z,9.57
2017-06-27T15:54:15.736Z,9.90
2017-06-27T15:56:44.012Z,9.93
2017-06-27T15:59:11.526Z,8.80
2017-06-27T16:01:39.382Z,10.57
2017-06-27T16:04:06.890Z,10.13
2017-06-27T16:06:34.404Z,9.97
2017-06-27T16:09:02.278Z,9.80
2017-06-27T16:11:29.807Z,10.87
2017-06-27T16:13:57.331Z,11.47
2017-06-27T16:16:25.252Z,9.20
2017-06-27T16:18:52.785Z,10.93
2017-06-27T16:21:20.296Z,9.73
2017-06-27T16:23:48.156Z,10.40
2017-06-27T16:26:15.674Z,10.07
2017-06-27T16:28:43.192Z,7.93
2017-06-27T16:31:11.026Z,8.47
2017-06-27T16:33:38.584Z,11.40
2017-06-27T16:36:06.154Z,10.13
2017-06-27T16:38:34.025Z,9.20
2017-06-27T16:41:01.550Z,9.70
2017-06-27T16:43:29.103Z,15.07
2017-06-27T16:45:57.002Z,9.67
2017-06-27T16:48:24.502Z,8.77
2017-06-27T16:50:52.015Z,8.93
2017-06-27T16:53:19.894Z,9.50
2017-06-27T16:55:47.453Z,9.27
2017-06-27T16:58:14.980Z,9.40
2017-06-27T17:00:42.966Z,8.97
2017-06-27T17:03:10.491Z,8.27
2017-06-27T17:05:38.798Z,8.97
2017-06-27T17:08:06.684Z,9.13
2017-06-27T17:10:34.190Z,8.37
2017-06-27T17:13:01.747Z,8.30
2017-06-27T17:15:29.571Z,11.83
2017-06-27T17:17:57.107Z,8.90
2017-06-27T17:20:24.656Z,8.90
2017-06-27T17:22:52.689Z,10.73
2017-06-27T17:25:20.210Z,8.40
2017-06-27T17:27:47.716Z,8.70
2017-06-27T17:30:15.533Z,10.10
2017-06-27T17:32:43.055Z,9.10
2017-06-27T17:35:10.582Z,9.40
2017-06-27T17:37:38.546Z,9.77
2017-06-27T17:40:06.070Z,8.87
2017-06-27T17:42:33.592Z,9.70
2017-06-27T17:45:01.444Z,9.37
2017-06-27T17:47:28.985Z,8.97
2017-06-27T17:49:56.550Z,9.00
2017-06-27T17:52:24.435Z,9.70
2017-06-27T17:54:51.963Z,9.57
2017-06-27T17:57:19.525Z,8.93
2017-06-27T17:59:47.441Z,8.83
2017-06-27T18:02:14.969Z,10.07
2017-06-27T18:04:42.542Z,9.53
2017-06-27T18:07:10.416Z,9.43
2017-06-27T18:09:37.957Z,10.33
2017-06-27T18:12:05.472Z,10.77
2017-06-27T18:14:33.313Z,10.97
2017-06-27T18:17:00.831Z,9.60
2017-06-27T18:19:28.385Z,11.73
2017-06-27T18:21:56.291Z,9.33
2017-06-27T18:24:23.870Z,10.77
2017-06-27T18:26:51.411Z,9.57
2017-06-27T18:29:19.481Z,9.70
2017-06-27T18:31:47.016Z,10.47
2017-06-27T18:34:14.530Z,10.80
2017-06-27T18:36:42.568Z,10.63
2017-06-27T18:39:10.133Z,10.40
2017-06-27T18:41:37.684Z,9.23
2017-06-27T18:44:05.615Z,10.57
2017-06-27T18:46:33.151Z,12.60
2017-06-27T18:49:00.719Z,9.63
2017-06-27T18:51:29.355Z,12.63
2017-06-27T18:53:56.878Z,10.23
2017-06-27T18:56:25.155Z,9.60
2017-06-27T18:58:53.789Z,9.70
2017-06-27T19:01:21.335Z,10.50
2017-06-27T19:03:48.919Z,8.80
2017-06-27T19:06:16.883Z,11.23
2017-06-27T19:08:44.414Z,10.93
2017-06-27T19:11:11.935Z,11.40
2017-06-27T19:13:39.993Z,9.90
2017-06-27T19:16:07.546Z,11.20
2017-06-27T19:18:35.096Z,11.23
2017-06-27T19:21:03.022Z,11.93
2017-06-27T19:23:30.557Z,11.83
2017-06-27T19:25:58.119Z,13.10
2017-06-27T19:28:26.004Z,13.57
2017-06-27T19:30:53.567Z,14.27
2017-06-27T19:33:21.110Z,13.30
2017-06-27T19:35:49.761Z,13.50
2017-06-27T19:38:17.291Z,15.20
2017-06-27T19:40:44.807Z,19.70
2017-06-27T19:43:12.846Z,19.53
2017-06-27T19:45:41.757Z,16.40
2017-06-27T19:48:10.463Z,15.67
2017-06-27T19:50:38.623Z,14.33
2017-06-27T19:53:06.221Z,14.10
2017-06-27T19:55:33.760Z,13.83
2017-06-27T19:58:02.423Z,12.97
2017-06-27T20:00:29.992Z,13.13
2017-06-27T20:02:57.566Z,12.20
2017-06-27T20:05:25.556Z,11.83
2017-06-27T20:07:53.213Z,13.30
2017-06-27T20:10:21.627Z,13.83
2017-06-27T20:12:49.491Z,13.90
2017-06-27T20:15:17.039Z,15.07
2017-06-27T20:17:44.560Z,13.63
2017-06-27T20:20:12.620Z,13.83
2017-06-27T20:22:40.181Z,14.13
2017-06-27T20:25:07.761Z,12.73
2017-06-27T20:27:36.409Z,13.63
2017-06-27T20:30:03.971Z,12.10
2017-06-27T20:32:31.504Z,12.20
2017-06-27T20:34:59.455Z,11.20
2017-06-27T20:37:27.745Z,13.10
2017-06-27T20:39:55.298Z,12.27
2017-06-27T20:42:23.250Z,13.10
2017-06-27T20:44:51.617Z,11.70
2017-06-27T20:47:19.158Z,11.30
2017-06-27T20:49:46.987Z,11.90
2017-06-27T20:52:14.524Z,12.40
2017-06-27T20:54:42.081Z,12.63
2017-06-27T20:57:09.930Z,11.97
2017-06-27T20:59:37.480Z,11.73
2017-06-27T21:02:05.031Z,11.43
2017-06-27T21:04:32.908Z,11.20
2017-06-27T21:07:00.452Z,10.80
2017-06-27T21:09:27.995Z,11.30
2017-06-27T21:11:55.843Z,10.97
2017-06-27T21:14:23.392Z,10.10
2017-06-27T21:16:51.705Z,9.90
2017-06-27T21:19:19.570Z,10.30
2017-06-27T21:21:47.093Z,10.30
2017-06-27T21:24:14.643Z,10.90
2017-06-27T21:26:43.207Z,11.80
2017-06-27T21:29:10.729Z,11.80
2017-06-27T21:31:38.265Z,11.97
2017-06-27T21:34:06.273Z,13.27
2017-06-27T21:36:33.804Z,13.27
2017-06-27T21:39:01.328Z,13.60
2017-06-27T21:41:29.155Z,12.43
2017-06-27T21:43:56.702Z,13.50
2017-06-27T21:46:24.244Z,10.90
2017-06-27T21:48:52.163Z,12.33
2017-06-27T21:51:19.717Z,12.43
2017-06-27T21:53:47.254Z,10.67
2017-06-27T21:56:15.196Z,9.63
2017-06-27T21:58:43.483Z,10.47
2017-06-27T22:01:11.019Z,10.67
2017-06-27T22:03:38.822Z,9.90
2017-06-27T22:06:06.355Z,10.97
2017-06-27T22:08:33.882Z,11.60
2017-06-27T22:11:01.703Z,11.20
2017-06-27T22:13:29.233Z,10.90
2017-06-27T22:15:56.733Z,10.70
2017-06-27T22:18:24.741Z,12.60
2017-06-27T22:20:52.271Z,10.70
2017-06-27T22:23:19.781Z,12.30
2017-06-27T22:25:47.601Z,11.30
2017-06-27T22:28:15.119Z,11.10
2017-06-27T22:30:42.667Z,11.40
2017-06-27T22:33:10.482Z,11.17
2017-06-27T22:35:37.992Z,10.67
2017-06-27T22:38:05.519Z,10.10
2017-06-27T22:40:33.439Z,9.73
2017-06-27T22:43:00.979Z,10.03
2017-06-27T22:45:28.490Z,9.67
2017-06-27T22:47:56.373Z,9.27
2017-06-27T22:50:23.886Z,9.30
2017-06-27T22:52:51.413Z,10.87
2017-06-27T22:55:19.243Z,10.63
2017-06-27T22:57:46.775Z,12.30
2017-06-27T23:00:14.297Z,9.50
2017-06-27T23:02:42.153Z,12.33
2017-06-27T23:05:09.663Z,10.67
2017-06-27T23:07:37.185Z,10.27
2017-06-27T23:10:04.996Z,9.70
2017-06-27T23:12:32.519Z,9.90
2017-06-27T23:15:00.053Z,10.57
2017-06-27T23:17:27.986Z,9.33
2017-06-27T23:19:55.511Z,9.43
2017-06-27T23:22:23.037Z,9.83
2017-06-27T23:24:50.892Z,9.67
2017-06-27T23:27:18.412Z,9.87
2017-06-27T23:29:46.678Z,9.87
2017-06-27T23:32:14.476Z,9.30
2017-06-27T23:34:42.122Z,9.97
2017-06-27T23:37:09.647Z,9.83
2017-06-27T23:39:37.485Z,9.83
2017-06-27T23:42:05.005Z,10.20
2017-06-27T23:44:32.511Z,8.77
2017-06-27T23:47:00.397Z,9.53
2017-06-27T23:49:27.903Z,10.27
2017-06-27T23:51:56.172Z,9.20
2017-06-27T23:54:24.181Z,11.97
2017-06-27T23:56:51.693Z,9.33
2017-06-27T23:59:19.983Z,9.63
